Atlantic Clover — 3FVD6 — position and weather

sailwx.info

Track history (hours):
 
Tides and Currents Weather Stations Pressure Air Temp Water Temp Dewpoint Dewpoint Depression Visibility Wind Speed Wind Dir Waves Ship Positions

Atlantic Clover

Last reported at 2018-Feb-02 09:49 UTC. Time now 2018-Feb-23 14:21 UTC.
Position N 30°12' W 129°37'.
Warning: this ship's position is 21 days out of date.

Length 180 m; draft 10 m.

Type: Cargo ship. MMSI: 371263000.

Date/timePositionNaut miles runAvg speedWind from/ knotsBaromVisibWave heightAir tempDewpointWater temp
2018-Feb-02 09:49N 30°12' W 129°37'412.4
2018-Feb-02 09:30N 30°12' W 129°33'612.4
2018-Feb-02 09:00N 30°12' W 129°26'3312.7
2018-Feb-02 06:22N 30°13' W 128°47'512.5
2018-Feb-02 06:00N 30°13' W 128°42'612.5
2018-Feb-02 05:30N 30°13' W 128°35'712.5
2018-Feb-02 04:58N 30°13' W 128°27'7612.5
2018-Feb-01 22:55N 30°14' W 126°59'2312.2
2018-Feb-01 21:05N 30°15' W 126°33'1912.3
2018-Feb-01 19:30N 30°15' W 126°11'3812.5
2018-Feb-01 16:29N 30°16' W 125°27'612.5
2018-Feb-01 16:00N 30°16' W 125°20'712.6
2018-Feb-01 15:28N 30°17' W 125°12'612.5
2018-Feb-01 15:00N 30°17' W 125°05'2012.2
2018-Feb-01 13:20N 30°17' W 124°42'2012.3
2018-Feb-01 11:43N 30°17' W 124°19'912.3
2018-Feb-01 11:00N 30°18' W 124°09'612.1
2018-Feb-01 10:29N 30°18' W 124°01'612.1
2018-Feb-01 10:00N 30°18' W 123°55'612.2
2018-Feb-01 09:30N 30°18' W 123°48'1012.2
2018-Feb-01 08:42N 30°18' W 123°36'312.1
2018-Feb-01 08:29N 30°18' W 123°33'4312.1
2018-Feb-01 04:55N 30°19' W 122°43'512.3
2018-Feb-01 04:30N 30°19' W 122°37'712.2
2018-Feb-01 03:58N 30°19' W 122°30'1712.3
2018-Feb-01 02:37N 30°19' W 122°10'112.3
2018-Feb-01 02:30N 30°20' W 122°09'612.0
2018-Feb-01 02:00N 30°20' W 122°02'612.1
2018-Feb-01 01:29N 30°21' W 121°54'1412.4
2018-Feb-01 00:21N 30°24' W 121°39'1712.4
2018-Jan-31 22:57N 30°28' W 121°19'612.5
2018-Jan-31 22:30N 30°29' W 121°12'2512.5
2018-Jan-31 20:30N 30°35' W 120°44'1712.5
2018-Jan-31 19:07N 30°38' W 120°24'312.4
2018-Jan-31 18:51N 30°39' W 120°21'612.7
2018-Jan-31 18:22N 30°41' W 120°14'512.9
2018-Jan-31 18:00N 30°42' W 120°09'712.8
2018-Jan-31 17:27N 30°43' W 120°00'612.6
2018-Jan-31 17:00N 30°44' W 119°54'612.4
2018-Jan-31 16:30N 30°46' W 119°47'612.8
2018-Jan-31 16:01N 30°47' W 119°40'2012.6
2018-Jan-31 14:24N 30°52' W 119°17'1812.7
2018-Jan-31 13:00N 30°55' W 118°56'612.9
2018-Jan-31 12:30N 30°56' W 118°49'10412.0
2018-Jan-31 03:50N 32°29' W 117°53'411.4
2018-Jan-31 03:30N 32°33' W 117°54'611.6
2018-Jan-31 03:00N 32°39' W 117°55'911.7
2018-Jan-31 02:12N 32°48' W 117°57'211.8
2018-Jan-31 02:01N 32°50' W 117°58'611.7
2018-Jan-31 01:30N 32°56' W 117°59'611.7
2018-Jan-31 01:00N 33°01' W 118°01'1211.7
2018-Jan-31 00:00N 33°13' W 118°03'611.7
2018-Jan-30 23:30N 33°18' W 118°06'611.8
2018-Jan-30 22:59N 33°24' W 118°08'611.9
2018-Jan-30 22:31N 33°30' W 118°11'1010.3
2018-Jan-30 21:30N 33°40' W 118°12'4 8.3
2018-Jan-30 21:00N 33°44' W 118°10'1 1.1
2018-Jan-30 20:28N 33°44' W 118°10'0 0.1
2018-Jan-30 19:58N 33°44' W 118°10'0 0.1
2018-Jan-30 19:28N 33°44' W 118°10'0 0.0
2018-Jan-30 18:58N 33°44' W 118°10'0 0.0
2018-Jan-30 18:28N 33°44' W 118°10'0 0.0
2018-Jan-30 17:58N 33°44' W 118°10'0 0.0
2018-Jan-30 17:25N 33°44' W 118°10'0 0.0
2018-Jan-30 16:58N 33°44' W 118°10'0 0.0
2018-Jan-30 16:28N 33°44' W 118°10'0 0.0
2018-Jan-30 15:58N 33°44' W 118°10'0 0.0
2018-Jan-30 15:28N 33°44' W 118°10'0 0.0
2018-Jan-30 13:22N 33°44' W 118°10'0 0.1
2018-Jan-30 12:58N 33°44' W 118°10'0 0.0
2018-Jan-30 12:28N 33°44' W 118°10'0 0.1
2018-Jan-30 11:58N 33°44' W 118°10'0 0.0
2018-Jan-30 11:28N 33°44' W 118°10'0 0.0
2018-Jan-30 10:13N 33°44' W 118°10'0 0.0
2018-Jan-30 09:28N 33°44' W 118°10'0 0.0
2018-Jan-30 08:58N 33°44' W 118°10'0 0.0
2018-Jan-30 08:28N 33°44' W 118°10'0 0.0
2018-Jan-30 07:58N 33°44' W 118°10'0 0.0
2018-Jan-30 07:28N 33°44' W 118°10'0 0.0
2018-Jan-30 06:58N 33°44' W 118°10'0 0.0
2018-Jan-30 06:22N 33°44' W 118°10'0 0.1
2018-Jan-30 04:40N 33°44' W 118°10'0 0.1
2018-Jan-30 04:28N 33°44' W 118°10'0 0.0
2018-Jan-30 03:28N 33°44' W 118°10'2 5.4
2018-Jan-30 03:00N 33°42' W 118°11'4 7.2
2018-Jan-30 02:30N 33°38' W 118°10'4 8.0
2018-Jan-30 02:00N 33°34' W 118°09'510.5
2018-Jan-30 01:30N 33°29' W 118°07'510.9
2018-Jan-30 01:00N 33°24' W 118°05'811.2
2018-Jan-30 00:18N 33°17' W 118°02'311.2
2018-Jan-30 00:00N 33°14' W 118°00'611.2
2018-Jan-29 23:30N 33°08' W 117°59'611.2
2018-Jan-29 23:00N 33°03' W 117°58'611.3
2018-Jan-29 22:30N 32°57' W 117°57'611.5
2018-Jan-29 22:00N 32°51' W 117°56'611.5
2018-Jan-29 21:30N 32°46' W 117°56'611.7
2018-Jan-29 21:00N 32°40' W 117°55'611.5
2018-Jan-29 20:30N 32°34' W 117°54'511.2
2018-Jan-29 20:00N 32°29' W 117°52'811.1
2018-Jan-29 19:19N 32°21' W 117°49'311.0
2018-Jan-29 19:00N 32°18' W 117°48'  
Track history (hours):
 
Tides and Currents Weather Stations Pressure Air Temp Water Temp Dewpoint Dewpoint Depression Visibility Wind Speed Wind Dir Waves Ship Positions

Atlantic Clover

Last reported at 2018-Feb-02 09:49 UTC. Time now 2018-Feb-23 14:21 UTC.
Position N 30°12' W 129°37'.
Warning: this ship's position is 21 days out of date.

Length 180 m; draft 10 m.

Type: Cargo ship. MMSI: 371263000.

Date/timePositionNaut miles runAvg speedWind from/ knotsBaromVisibWave heightAir tempDewpointWater temp
2018-Feb-02 09:49N 30°12' W 129°37'412.4
2018-Feb-02 09:30N 30°12' W 129°33'612.4
2018-Feb-02 09:00N 30°12' W 129°26'3312.7
2018-Feb-02 06:22N 30°13' W 128°47'512.5
2018-Feb-02 06:00N 30°13' W 128°42'612.5
2018-Feb-02 05:30N 30°13' W 128°35'712.5
2018-Feb-02 04:58N 30°13' W 128°27'7612.5
2018-Feb-01 22:55N 30°14' W 126°59'2312.2
2018-Feb-01 21:05N 30°15' W 126°33'1912.3
2018-Feb-01 19:30N 30°15' W 126°11'3812.5
2018-Feb-01 16:29N 30°16' W 125°27'612.5
2018-Feb-01 16:00N 30°16' W 125°20'712.6
2018-Feb-01 15:28N 30°17' W 125°12'612.5
2018-Feb-01 15:00N 30°17' W 125°05'2012.2
2018-Feb-01 13:20N 30°17' W 124°42'2012.3
2018-Feb-01 11:43N 30°17' W 124°19'912.3
2018-Feb-01 11:00N 30°18' W 124°09'612.1
2018-Feb-01 10:29N 30°18' W 124°01'612.1
2018-Feb-01 10:00N 30°18' W 123°55'612.2
2018-Feb-01 09:30N 30°18' W 123°48'1012.2
2018-Feb-01 08:42N 30°18' W 123°36'312.1
2018-Feb-01 08:29N 30°18' W 123°33'4312.1
2018-Feb-01 04:55N 30°19' W 122°43'512.3
2018-Feb-01 04:30N 30°19' W 122°37'712.2
2018-Feb-01 03:58N 30°19' W 122°30'1712.3
2018-Feb-01 02:37N 30°19' W 122°10'112.3
2018-Feb-01 02:30N 30°20' W 122°09'612.0
2018-Feb-01 02:00N 30°20' W 122°02'612.1
2018-Feb-01 01:29N 30°21' W 121°54'1412.4
2018-Feb-01 00:21N 30°24' W 121°39'1712.4
2018-Jan-31 22:57N 30°28' W 121°19'612.5
2018-Jan-31 22:30N 30°29' W 121°12'2512.5
2018-Jan-31 20:30N 30°35' W 120°44'1712.5
2018-Jan-31 19:07N 30°38' W 120°24'312.4
2018-Jan-31 18:51N 30°39' W 120°21'612.7
2018-Jan-31 18:22N 30°41' W 120°14'512.9
2018-Jan-31 18:00N 30°42' W 120°09'712.8
2018-Jan-31 17:27N 30°43' W 120°00'612.6
2018-Jan-31 17:00N 30°44' W 119°54'612.4
2018-Jan-31 16:30N 30°46' W 119°47'612.8
2018-Jan-31 16:01N 30°47' W 119°40'2012.6
2018-Jan-31 14:24N 30°52' W 119°17'1812.7
2018-Jan-31 13:00N 30°55' W 118°56'612.9
2018-Jan-31 12:30N 30°56' W 118°49'10412.0
2018-Jan-31 03:50N 32°29' W 117°53'411.4
2018-Jan-31 03:30N 32°33' W 117°54'611.6
2018-Jan-31 03:00N 32°39' W 117°55'911.7
2018-Jan-31 02:12N 32°48' W 117°57'211.8
2018-Jan-31 02:01N 32°50' W 117°58'611.7
2018-Jan-31 01:30N 32°56' W 117°59'611.7
2018-Jan-31 01:00N 33°01' W 118°01'1211.7
2018-Jan-31 00:00N 33°13' W 118°03'611.7
2018-Jan-30 23:30N 33°18' W 118°06'611.8
2018-Jan-30 22:59N 33°24' W 118°08'611.9
2018-Jan-30 22:31N 33°30' W 118°11'1010.3
2018-Jan-30 21:30N 33°40' W 118°12'4 8.3
2018-Jan-30 21:00N 33°44' W 118°10'1 1.1
2018-Jan-30 20:28N 33°44' W 118°10'0 0.1
2018-Jan-30 19:58N 33°44' W 118°10'0 0.1
2018-Jan-30 19:28N 33°44' W 118°10'0 0.0
2018-Jan-30 18:58N 33°44' W 118°10'0 0.0
2018-Jan-30 18:28N 33°44' W 118°10'0 0.0
2018-Jan-30 17:58N 33°44' W 118°10'0 0.0
2018-Jan-30 17:25N 33°44' W 118°10'0 0.0
2018-Jan-30 16:58N 33°44' W 118°10'0 0.0
2018-Jan-30 16:28N 33°44' W 118°10'0 0.0
2018-Jan-30 15:58N 33°44' W 118°10'0 0.0
2018-Jan-30 15:28N 33°44' W 118°10'0 0.0
2018-Jan-30 13:22N 33°44' W 118°10'0 0.1
2018-Jan-30 12:58N 33°44' W 118°10'0 0.0
2018-Jan-30 12:28N 33°44' W 118°10'0 0.1
2018-Jan-30 11:58N 33°44' W 118°10'0 0.0
2018-Jan-30 11:28N 33°44' W 118°10'0 0.0
2018-Jan-30 10:13N 33°44' W 118°10'0 0.0
2018-Jan-30 09:28N 33°44' W 118°10'0 0.0
2018-Jan-30 08:58N 33°44' W 118°10'0 0.0
2018-Jan-30 08:28N 33°44' W 118°10'0 0.0
2018-Jan-30 07:58N 33°44' W 118°10'0 0.0
2018-Jan-30 07:28N 33°44' W 118°10'0 0.0
2018-Jan-30 06:58N 33°44' W 118°10'0 0.0
2018-Jan-30 06:22N 33°44' W 118°10'0 0.1
2018-Jan-30 04:40N 33°44' W 118°10'0 0.1
2018-Jan-30 04:28N 33°44' W 118°10'0 0.0
2018-Jan-30 03:28N 33°44' W 118°10'2 5.4
2018-Jan-30 03:00N 33°42' W 118°11'4 7.2
2018-Jan-30 02:30N 33°38' W 118°10'4 8.0
2018-Jan-30 02:00N 33°34' W 118°09'510.5
2018-Jan-30 01:30N 33°29' W 118°07'510.9
2018-Jan-30 01:00N 33°24' W 118°05'811.2
2018-Jan-30 00:18N 33°17' W 118°02'311.2
2018-Jan-30 00:00N 33°14' W 118°00'611.2
2018-Jan-29 23:30N 33°08' W 117°59'611.2
2018-Jan-29 23:00N 33°03' W 117°58'611.3
2018-Jan-29 22:30N 32°57' W 117°57'611.5
2018-Jan-29 22:00N 32°51' W 117°56'611.5
2018-Jan-29 21:30N 32°46' W 117°56'611.7
2018-Jan-29 21:00N 32°40' W 117°55'611.5
2018-Jan-29 20:30N 32°34' W 117°54'511.2
2018-Jan-29 20:00N 32°29' W 117°52'811.1
2018-Jan-29 19:19N 32°21' W 117°49'311.0
2018-Jan-29 19:00N 32°18' W 117°48'  

Dump ship's entire track history